In Rescue
 
Open Full Screen Window  High Contrast Mode
June 22, 2024 9:22 PM CDT
Present Weather: Drizzle
Weather Information
Wind Direction
  ---
Wind Speed
  00 kt (0 mph)
Wind Gust
  00 kt (0 mph)
Altimeter
29.85 in
Visibility
3 SM
Temperature
17° C
63° F
Dewpoint
17° C
63° F
Humidity
100%
Sky Condition
Overcast @ 3,400 ft
Broken @ 2,300 ft
Scattered @ 800 ft
MVFR

METAR KY49 230222Z AUTO 00000KT 3SM DZ SCT008 BKN023 OVC034 17/17 A2985 RMK AO2 T01700170

FAA Disclaimer: The data displayed is for advisory purposes only and is not to be used for flight planning or operations.